Woodville, Mississippi
Current Conditions -  °F | °C
As of 4:35 AM on Wednesday 22 Oct 2014 (Local Time) from KHZR Reporting Station
Clear Clear  
Wind Chill: 56°   Ceiling: Unl
Heat Index: 56°   Visibility: 7mi
Dew Point: 56°   Wind: 0mph
Humidity: 99%   Direction: NA
Pressure: 30.05"   Gusts: NA
Location:  31.1°N, 91.3°W
Report Text: KHZR 220935Z AUTO 00000KT 7SM CLR 14/13 A3005 RMK AO2 T01360134
Loading
Personal Weather Stations






























Interactive Weather Map
Tropical Storm Tracking
New forecast layout! Learn more

10-Day Weather Forecast

Advertisements
Track Severe Weather on mobile